This is the latest recevied weather packets stored in our database for station/object ZR6G-15. If no packets are shown the sender has not sent any weather packets the latest 10 day(s).
| Time | Temp. | Humidity | Pressure | Rain* | Wind** | Luminosity | Snow |
|---|---|---|---|---|---|---|---|
| 1777742644 | 15° C | 37% | 1018 hPa | - | - | - | - |
| 1777742040 | 15° C | 37% | 1017.8 hPa | - | - | - | - |
| 1777741435 | 15° C | 36% | 1017.5 hPa | - | - | - | - |
| 1777740831 | 15.56° C | 32% | 1017.1 hPa | - | - | - | - |
| 1777740227 | 15.56° C | 32% | 1016.9 hPa | - | - | - | - |
| 1777739622 | 15.56° C | 33% | 1016.6 hPa | - | - | - | - |
| 1777739017 | 15.56° C | 32% | 1016.4 hPa | - | - | - | - |
| 1777738413 | 16.67° C | 30% | 1015.9 hPa | - | - | - | - |
| 1777737808 | 16.67° C | 28% | 1015.5 hPa | - | - | - | - |
| 1777737203 | 17.78° C | 25% | 1015 hPa | - | - | - | - |
| 1777736599 | 17.78° C | 23% | 1014.7 hPa | - | - | - | - |
| 1777735994 | 18.89° C | 21% | 1014.4 hPa | - | - | - | - |
| 1777735390 | 18.89° C | 20% | 1014.2 hPa | - | - | - | - |
| 1777734785 | 18.89° C | 20% | 1014.2 hPa | - | - | - | - |
| 1777734180 | 18.89° C | 18% | 1013.9 hPa | - | - | - | - |
| 1777733576 | 20° C | 18% | 1013.8 hPa | - | - | - | - |
| 1777732971 | 20° C | 18% | 1013.4 hPa | - | - | - | - |
| 1777732366 | 20° C | 18% | 1013.4 hPa | - | - | - | - |
| 1777731762 | 20° C | 18% | 1013.2 hPa | - | - | - | - |
| 1777731157 | 20° C | 18% | 1013 hPa | - | - | - | - |
| 1777730553 | 20° C | 18% | 1012.9 hPa | - | - | - | - |
| 1777729948 | 20.56° C | 17% | 1012.8 hPa | - | - | - | - |
| 1777729343 | 20.56° C | 17% | 1012.7 hPa | - | - | - | - |
| 1777728738 | 20.56° C | 17% | 1012.5 hPa | - | - | - | - |
| 1777728133 | 20.56° C | 17% | 1012.4 hPa | - | - | - | - |
* Rain since midnight (hover to see other rain measurements)
** Current wind speed in m/s (hover to see current wind gust speed)